MSC Claudia — 3FZA6 — position and weather

sailwx.info

Track history (hours):
 
Tides and Currents Weather Stations Pressure Air Temp Water Temp Dewpoint Dewpoint Depression Visibility Wind Speed Wind Dir Waves Ship Positions

MSC Claudia

Last reported at 2014-Aug-28 22:33 UTC. Time now 2014-Aug-28 23:22 UTC.
Position N 36°46' W 009°31'.

Length 292 m; draft 8.7 m.

Type: Ship (hazmat cat A). MMSI: 370606000.

Date/timePositionNaut miles runAvg speedWind from/ knotsBaromVisibWave heightAir tempDewpointWater temp
2014-Aug-28 22:33N 36°46' W 009°31'3716.3
2014-Aug-28 20:17N 37°22' W 009°18'1318.2
2014-Aug-28 19:33N 37°33' W 009°08'1716.8
2014-Aug-28 18:33N 37°47' W 008°56'9 0.7
2014-Aug-28 06:33N 37°54' W 008°51'9 8.9
2014-Aug-28 05:33N 37°48' W 008°59'4 4.2
2014-Aug-28 04:31N 37°46' W 009°04'1 0.5
2014-Aug-28 03:15N 37°46' W 009°04'0 0.4
2014-Aug-28 02:26N 37°46' W 009°05'1 0.4
2014-Aug-27 23:33N 37°47' W 009°05'1 0.9
2014-Aug-27 22:33N 37°48' W 009°05'1 1.0
2014-Aug-27 21:30N 37°49' W 009°06'2 1.1
2014-Aug-27 20:05N 37°51' W 009°06'1 1.2
2014-Aug-27 19:33N 37°51' W 009°06'1 1.5
2014-Aug-27 18:32N 37°53' W 009°05'6 3.0
2014-Aug-27 16:32N 37°55' W 009°12'  
2014-Aug-21 14:33N 49°20' W 066°15'2019.9
2014-Aug-21 13:33N 49°14' W 066°44'1919.3
2014-Aug-21 12:33N 49°08' W 067°12'1918.6
2014-Aug-21 11:33N 49°01' W 067°39'1919.3
2014-Aug-21 10:33N 48°50' W 068°03'1919.3
2014-Aug-21 09:33N 48°40' W 068°27'2020.1
2014-Aug-21 08:33N 48°29' W 068°53'1817.6
2014-Aug-21 07:33N 48°20' W 069°15'1110.6
2014-Aug-21 06:33N 48°13' W 069°28'1212.2
2014-Aug-21 05:33N 48°03' W 069°37'1716.8
2014-Aug-21 04:33N 47°48' W 069°50'1616.2
2014-Aug-21 03:33N 47°36' W 070°05'1615.5
2014-Aug-21 02:33N 47°26' W 070°23'1716.6
2014-Aug-21 01:33N 47°12' W 070°36'1817.8
2014-Aug-21 00:33N 46°57' W 070°51'1514.9
2014-Aug-20 23:33N 46°50' W 071°10'1211.6
2014-Aug-20 22:33N 46°43' W 071°23'1312.9
2014-Aug-20 21:33N 46°39' W 071°41'1313.1
2014-Aug-20 20:33N 46°36' W 071°59'1212.4
2014-Aug-20 19:33N 46°29' W 072°14'1212.4
2014-Aug-20 18:33N 46°22' W 072°29'1010.0
2014-Aug-20 17:33N 46°16' W 072°40'1312.7
2014-Aug-20 16:33N 46°09' W 072°57'1211.9
2014-Aug-20 15:33N 46°02' W 073°10'1312.9
2014-Aug-20 14:34N 45°50' W 073°17'1312.6
2014-Aug-20 13:34N 45°40' W 073°28'6 6.4
2014-Aug-20 12:33N 45°34' W 073°31'0 0.5
2014-Aug-20 11:33N 45°35' W 073°31'0 0.0
2014-Aug-20 10:33N 45°35' W 073°31'0 0.0
2014-Aug-20 09:33N 45°35' W 073°31'0 0.0
2014-Aug-20 08:33N 45°35' W 073°31'0 0.0
2014-Aug-20 07:33N 45°35' W 073°31'0 0.0
2014-Aug-20 06:33N 45°34' W 073°31'0 0.0
2014-Aug-20 05:33N 45°35' W 073°31'0 0.0
2014-Aug-20 04:33N 45°35' W 073°31'0 0.0
2014-Aug-20 03:33N 45°35' W 073°31'0 0.0
2014-Aug-20 02:33N 45°35' W 073°31'0 0.0
2014-Aug-20 01:33N 45°35' W 073°31'0 0.0
2014-Aug-20 00:33N 45°35' W 073°31'0 0.0
2014-Aug-19 23:33N 45°35' W 073°31'0 0.0
2014-Aug-19 22:33N 45°35' W 073°31'0 0.0
2014-Aug-19 21:33N 45°35' W 073°31'0 0.0
2014-Aug-19 20:33N 45°35' W 073°31'0 0.0
2014-Aug-19 19:33N 45°35' W 073°31'0 0.0
2014-Aug-19 18:33N 45°35' W 073°31'0 0.0
2014-Aug-19 17:33N 45°35' W 073°31'0 0.0
2014-Aug-19 16:33N 45°35' W 073°31'0 0.0
2014-Aug-19 15:33N 45°35' W 073°31'0 0.0
2014-Aug-19 14:33N 45°35' W 073°31'0 0.0
2014-Aug-19 13:33N 45°35' W 073°31'0 0.0
2014-Aug-19 12:33N 45°35' W 073°31'0 0.0
2014-Aug-19 11:33N 45°34' W 073°31'0 0.0
2014-Aug-19 10:33N 45°35' W 073°31'0 0.0
2014-Aug-19 09:33N 45°35' W 073°31'0 0.0
2014-Aug-19 08:33N 45°35' W 073°31'0 0.0
2014-Aug-19 07:33N 45°35' W 073°31'0 0.0
2014-Aug-19 06:33N 45°35' W 073°31'0 0.0
2014-Aug-19 05:33N 45°35' W 073°31'0 0.0
2014-Aug-19 04:33N 45°35' W 073°31'0 0.0
2014-Aug-19 03:32N 45°35' W 073°31'0 0.0
2014-Aug-19 02:32N 45°35' W 073°31'0 0.0
2014-Aug-19 01:32N 45°35' W 073°31'0 0.0
2014-Aug-19 00:32N 45°35' W 073°31'0 0.0
2014-Aug-18 23:32N 45°35' W 073°31'  
Track history (hours):
 
Tides and Currents Weather Stations Pressure Air Temp Water Temp Dewpoint Dewpoint Depression Visibility Wind Speed Wind Dir Waves Ship Positions

MSC Claudia

Last reported at 2014-Aug-28 22:33 UTC. Time now 2014-Aug-28 23:22 UTC.
Position N 36°46' W 009°31'.

Length 292 m; draft 8.7 m.

Type: Ship (hazmat cat A). MMSI: 370606000.

Date/timePositionNaut miles runAvg speedWind from/ knotsBaromVisibWave heightAir tempDewpointWater temp
2014-Aug-28 22:33N 36°46' W 009°31'3716.3
2014-Aug-28 20:17N 37°22' W 009°18'1318.2
2014-Aug-28 19:33N 37°33' W 009°08'1716.8
2014-Aug-28 18:33N 37°47' W 008°56'9 0.7
2014-Aug-28 06:33N 37°54' W 008°51'9 8.9
2014-Aug-28 05:33N 37°48' W 008°59'4 4.2
2014-Aug-28 04:31N 37°46' W 009°04'1 0.5
2014-Aug-28 03:15N 37°46' W 009°04'0 0.4
2014-Aug-28 02:26N 37°46' W 009°05'1 0.4
2014-Aug-27 23:33N 37°47' W 009°05'1 0.9
2014-Aug-27 22:33N 37°48' W 009°05'1 1.0
2014-Aug-27 21:30N 37°49' W 009°06'2 1.1
2014-Aug-27 20:05N 37°51' W 009°06'1 1.2
2014-Aug-27 19:33N 37°51' W 009°06'1 1.5
2014-Aug-27 18:32N 37°53' W 009°05'6 3.0
2014-Aug-27 16:32N 37°55' W 009°12'  
2014-Aug-21 14:33N 49°20' W 066°15'2019.9
2014-Aug-21 13:33N 49°14' W 066°44'1919.3
2014-Aug-21 12:33N 49°08' W 067°12'1918.6
2014-Aug-21 11:33N 49°01' W 067°39'1919.3
2014-Aug-21 10:33N 48°50' W 068°03'1919.3
2014-Aug-21 09:33N 48°40' W 068°27'2020.1
2014-Aug-21 08:33N 48°29' W 068°53'1817.6
2014-Aug-21 07:33N 48°20' W 069°15'1110.6
2014-Aug-21 06:33N 48°13' W 069°28'1212.2
2014-Aug-21 05:33N 48°03' W 069°37'1716.8
2014-Aug-21 04:33N 47°48' W 069°50'1616.2
2014-Aug-21 03:33N 47°36' W 070°05'1615.5
2014-Aug-21 02:33N 47°26' W 070°23'1716.6
2014-Aug-21 01:33N 47°12' W 070°36'1817.8
2014-Aug-21 00:33N 46°57' W 070°51'1514.9
2014-Aug-20 23:33N 46°50' W 071°10'1211.6
2014-Aug-20 22:33N 46°43' W 071°23'1312.9
2014-Aug-20 21:33N 46°39' W 071°41'1313.1
2014-Aug-20 20:33N 46°36' W 071°59'1212.4
2014-Aug-20 19:33N 46°29' W 072°14'1212.4
2014-Aug-20 18:33N 46°22' W 072°29'1010.0
2014-Aug-20 17:33N 46°16' W 072°40'1312.7
2014-Aug-20 16:33N 46°09' W 072°57'1211.9
2014-Aug-20 15:33N 46°02' W 073°10'1312.9
2014-Aug-20 14:34N 45°50' W 073°17'1312.6
2014-Aug-20 13:34N 45°40' W 073°28'6 6.4
2014-Aug-20 12:33N 45°34' W 073°31'0 0.5
2014-Aug-20 11:33N 45°35' W 073°31'0 0.0
2014-Aug-20 10:33N 45°35' W 073°31'0 0.0
2014-Aug-20 09:33N 45°35' W 073°31'0 0.0
2014-Aug-20 08:33N 45°35' W 073°31'0 0.0
2014-Aug-20 07:33N 45°35' W 073°31'0 0.0
2014-Aug-20 06:33N 45°34' W 073°31'0 0.0
2014-Aug-20 05:33N 45°35' W 073°31'0 0.0
2014-Aug-20 04:33N 45°35' W 073°31'0 0.0
2014-Aug-20 03:33N 45°35' W 073°31'0 0.0
2014-Aug-20 02:33N 45°35' W 073°31'0 0.0
2014-Aug-20 01:33N 45°35' W 073°31'0 0.0
2014-Aug-20 00:33N 45°35' W 073°31'0 0.0
2014-Aug-19 23:33N 45°35' W 073°31'0 0.0
2014-Aug-19 22:33N 45°35' W 073°31'0 0.0
2014-Aug-19 21:33N 45°35' W 073°31'0 0.0
2014-Aug-19 20:33N 45°35' W 073°31'0 0.0
2014-Aug-19 19:33N 45°35' W 073°31'0 0.0
2014-Aug-19 18:33N 45°35' W 073°31'0 0.0
2014-Aug-19 17:33N 45°35' W 073°31'0 0.0
2014-Aug-19 16:33N 45°35' W 073°31'0 0.0
2014-Aug-19 15:33N 45°35' W 073°31'0 0.0
2014-Aug-19 14:33N 45°35' W 073°31'0 0.0
2014-Aug-19 13:33N 45°35' W 073°31'0 0.0
2014-Aug-19 12:33N 45°35' W 073°31'0 0.0
2014-Aug-19 11:33N 45°34' W 073°31'0 0.0
2014-Aug-19 10:33N 45°35' W 073°31'0 0.0
2014-Aug-19 09:33N 45°35' W 073°31'0 0.0
2014-Aug-19 08:33N 45°35' W 073°31'0 0.0
2014-Aug-19 07:33N 45°35' W 073°31'0 0.0
2014-Aug-19 06:33N 45°35' W 073°31'0 0.0
2014-Aug-19 05:33N 45°35' W 073°31'0 0.0
2014-Aug-19 04:33N 45°35' W 073°31'0 0.0
2014-Aug-19 03:32N 45°35' W 073°31'0 0.0
2014-Aug-19 02:32N 45°35' W 073°31'0 0.0
2014-Aug-19 01:32N 45°35' W 073°31'0 0.0
2014-Aug-19 00:32N 45°35' W 073°31'0 0.0
2014-Aug-18 23:32N 45°35' W 073°31'  

Dump ship's entire track history